sensor_id;sensor_type;location;lat;lon;timestamp;temperature;humidity
44435;DHT22;30138;20.964;105.830;2024-03-23T00:57:54;24.00;99.90
44435;DHT22;30138;20.964;105.830;2024-03-23T01:03:01;24.00;99.90
44435;DHT22;30138;20.964;105.830;2024-03-23T01:08:10;24.00;99.90
44435;DHT22;30138;20.964;105.830;2024-03-23T01:13:17;24.00;99.90
44435;DHT22;30138;20.964;105.830;2024-03-23T01:18:25;24.10;99.90
44435;DHT22;30138;20.964;105.830;2024-03-23T01:23:35;24.10;99.90
44435;DHT22;30138;20.964;105.830;2024-03-23T01:28:44;24.10;99.90
44435;DHT22;30138;20.964;105.830;2024-03-23T01:33:51;24.10;99.90
44435;DHT22;30138;20.964;105.830;2024-03-23T01:39:02;24.10;99.90
44435;DHT22;30138;20.964;105.830;2024-03-23T01:44:09;24.10;99.90
44435;DHT22;30138;20.964;105.830;2024-03-23T01:49:17;24.10;99.90
44435;DHT22;30138;20.964;105.830;2024-03-23T01:54:26;24.20;99.90
44435;DHT22;30138;20.964;105.830;2024-03-23T01:59:34;24.20;99.90
44435;DHT22;30138;20.964;105.830;2024-03-23T02:04:44;24.20;99.90
44435;DHT22;30138;20.964;105.830;2024-03-23T02:09:53;24.20;99.90
44435;DHT22;30138;20.964;105.830;2024-03-23T02:15:01;24.30;99.90
44435;DHT22;30138;20.964;105.830;2024-03-23T02:20:10;24.30;99.90
44435;DHT22;30138;20.964;105.830;2024-03-23T02:25:20;24.30;99.90
44435;DHT22;30138;20.964;105.830;2024-03-23T02:30:27;24.30;99.90
44435;DHT22;30138;20.964;105.830;2024-03-23T02:35:34;24.40;99.90
44435;DHT22;30138;20.964;105.830;2024-03-23T02:40:43;24.40;99.90
44435;DHT22;30138;20.964;105.830;2024-03-23T02:45:51;24.40;99.90
44435;DHT22;30138;20.964;105.830;2024-03-23T02:50:59;24.40;99.90
44435;DHT22;30138;20.964;105.830;2024-03-23T02:56:09;24.40;99.90
44435;DHT22;30138;20.964;105.830;2024-03-23T03:01:19;24.40;99.90
44435;DHT22;30138;20.964;105.830;2024-03-23T03:06:26;24.50;99.90
44435;DHT22;30138;20.964;105.830;2024-03-23T03:11:37;24.50;99.90
44435;DHT22;30138;20.964;105.830;2024-03-23T03:16:45;24.60;99.90
44435;DHT22;30138;20.964;105.830;2024-03-23T03:21:52;24.60;99.90
44435;DHT22;30138;20.964;105.830;2024-03-23T03:27:01;24.70;99.90
44435;DHT22;30138;20.964;105.830;2024-03-23T03:32:28;24.70;99.90
44435;DHT22;30138;20.964;105.830;2024-03-23T03:37:57;24.70;99.90
44435;DHT22;30138;20.964;105.830;2024-03-23T03:43:07;24.80;99.90
44435;DHT22;30138;20.964;105.830;2024-03-23T03:48:15;24.80;99.90
44435;DHT22;30138;20.964;105.830;2024-03-23T03:53:23;24.80;99.90
44435;DHT22;30138;20.964;105.830;2024-03-23T03:58:33;24.80;99.90
44435;DHT22;30138;20.964;105.830;2024-03-23T04:03:40;24.80;99.90
44435;DHT22;30138;20.964;105.830;2024-03-23T04:08:48;24.80;99.90
44435;DHT22;30138;20.964;105.830;2024-03-23T04:13:58;24.90;99.90
44435;DHT22;30138;20.964;105.830;2024-03-23T04:19:05;24.90;99.90
44435;DHT22;30138;20.964;105.830;2024-03-23T04:24:14;24.90;99.90
44435;DHT22;30138;20.964;105.830;2024-03-23T04:29:25;25.00;99.90
44435;DHT22;30138;20.964;105.830;2024-03-23T04:34:32;25.00;99.90
44435;DHT22;30138;20.964;105.830;2024-03-23T04:39:40;25.00;99.90
44435;DHT22;30138;20.964;105.830;2024-03-23T04:44:50;25.00;99.90
44435;DHT22;30138;20.964;105.830;2024-03-23T04:49:57;25.00;99.90
44435;DHT22;30138;20.964;105.830;2024-03-23T04:55:05;25.10;99.90
44435;DHT22;30138;20.964;105.830;2024-03-23T05:00:15;25.10;99.90
44435;DHT22;30138;20.964;105.830;2024-03-23T05:05:38;25.20;99.90
44435;DHT22;30138;20.964;105.830;2024-03-23T05:10:46;25.20;99.90
44435;DHT22;30138;20.964;105.830;2024-03-23T05:15:56;25.20;99.90
44435;DHT22;30138;20.964;105.830;2024-03-23T05:21:03;25.30;99.90
44435;DHT22;30138;20.964;105.830;2024-03-23T05:26:10;25.30;99.90
44435;DHT22;30138;20.964;105.830;2024-03-23T05:31:26;25.40;99.90
44435;DHT22;30138;20.964;105.830;2024-03-23T05:36:33;25.40;99.90
44435;DHT22;30138;20.964;105.830;2024-03-23T05:41:40;25.40;99.90
44435;DHT22;30138;20.964;105.830;2024-03-23T05:46:50;25.50;99.90
44435;DHT22;30138;20.964;105.830;2024-03-23T05:51:58;25.40;99.90
44435;DHT22;30138;20.964;105.830;2024-03-23T05:57:06;25.50;99.90
44435;DHT22;30138;20.964;105.830;2024-03-23T06:02:17;25.50;99.90
44435;DHT22;30138;20.964;105.830;2024-03-23T06:07:23;25.60;99.90
44435;DHT22;30138;20.964;105.830;2024-03-23T06:12:30;25.60;99.90
44435;DHT22;30138;20.964;105.830;2024-03-23T06:17:39;25.60;99.90
44435;DHT22;30138;20.964;105.830;2024-03-23T06:22:47;25.70;99.90
44435;DHT22;30138;20.964;105.830;2024-03-23T06:27:54;25.70;99.90
44435;DHT22;30138;20.964;105.830;2024-03-23T06:33:05;25.70;99.90
44435;DHT22;30138;20.964;105.830;2024-03-23T06:38:12;25.70;99.90
44435;DHT22;30138;20.964;105.830;2024-03-23T06:43:20;25.80;99.90
44435;DHT22;30138;20.964;105.830;2024-03-23T06:48:28;25.80;99.90
44435;DHT22;30138;20.964;105.830;2024-03-23T06:53:37;25.80;99.90
44435;DHT22;30138;20.964;105.830;2024-03-23T06:58:44;25.80;99.90
44435;DHT22;30138;20.964;105.830;2024-03-23T07:03:54;25.90;99.90
44435;DHT22;30138;20.964;105.830;2024-03-23T07:09:01;25.90;99.90
44435;DHT22;30138;20.964;105.830;2024-03-23T07:14:09;25.90;99.90
44435;DHT22;30138;20.964;105.830;2024-03-23T07:19:17;26.00;99.90
44435;DHT22;30138;20.964;105.830;2024-03-23T07:24:25;25.90;99.90
44435;DHT22;30138;20.964;105.830;2024-03-23T07:29:33;26.00;99.90
44435;DHT22;30138;20.964;105.830;2024-03-23T07:34:43;26.00;99.90
44435;DHT22;30138;20.964;105.830;2024-03-23T07:39:50;26.00;99.90
44435;DHT22;30138;20.964;105.830;2024-03-23T07:44:56;26.00;99.90
44435;DHT22;30138;20.964;105.830;2024-03-23T07:50:06;26.00;99.90
44435;DHT22;30138;20.964;105.830;2024-03-23T07:55:15;26.10;99.90
44435;DHT22;30138;20.964;105.830;2024-03-23T08:00:22;26.10;99.90
44435;DHT22;30138;20.964;105.830;2024-03-23T08:05:31;26.10;99.90
44435;DHT22;30138;20.964;105.830;2024-03-23T08:10:48;26.20;99.90
44435;DHT22;30138;20.964;105.830;2024-03-23T08:15:58;26.10;99.90
44435;DHT22;30138;20.964;105.830;2024-03-23T08:21:08;26.20;99.90
44435;DHT22;30138;20.964;105.830;2024-03-23T08:26:17;26.20;99.90
44435;DHT22;30138;20.964;105.830;2024-03-23T08:31:24;26.20;99.90
44435;DHT22;30138;20.964;105.830;2024-03-23T08:36:34;26.30;99.90
44435;DHT22;30138;20.964;105.830;2024-03-23T08:41:41;26.30;99.90
44435;DHT22;30138;20.964;105.830;2024-03-23T08:52:30;26.30;99.90
44435;DHT22;30138;20.964;105.830;2024-03-23T08:57:38;26.30;99.90
44435;DHT22;30138;20.964;105.830;2024-03-23T09:02:48;26.30;99.90
44435;DHT22;30138;20.964;105.830;2024-03-23T09:07:58;26.40;99.90
44435;DHT22;30138;20.964;105.830;2024-03-23T09:13:05;26.40;99.90
44435;DHT22;30138;20.964;105.830;2024-03-23T09:18:13;26.30;99.90
44435;DHT22;30138;20.964;105.830;2024-03-23T09:23:22;26.30;99.90
44435;DHT22;30138;20.964;105.830;2024-03-23T09:28:29;26.40;99.90
44435;DHT22;30138;20.964;105.830;2024-03-23T09:33:36;26.40;99.90
44435;DHT22;30138;20.964;105.830;2024-03-23T09:38:45;26.40;99.90
44435;DHT22;30138;20.964;105.830;2024-03-23T09:44:31;26.40;99.90
44435;DHT22;30138;20.964;105.830;2024-03-23T09:49:39;26.40;99.90
44435;DHT22;30138;20.964;105.830;2024-03-23T09:54:48;26.40;99.90
44435;DHT22;30138;20.964;105.830;2024-03-23T09:59:55;26.40;99.90
44435;DHT22;30138;20.964;105.830;2024-03-23T10:05:03;26.40;99.90
44435;DHT22;30138;20.964;105.830;2024-03-23T10:10:14;26.40;99.90
44435;DHT22;30138;20.964;105.830;2024-03-23T10:15:25;26.40;99.90
44435;DHT22;30138;20.964;105.830;2024-03-23T10:20:32;26.40;99.90
44435;DHT22;30138;20.964;105.830;2024-03-23T10:25:41;26.40;99.90
44435;DHT22;30138;20.964;105.830;2024-03-23T10:30:52;26.40;99.90
44435;DHT22;30138;20.964;105.830;2024-03-23T10:35:59;26.50;99.90
44435;DHT22;30138;20.964;105.830;2024-03-23T10:41:09;26.40;99.90
44435;DHT22;30138;20.964;105.830;2024-03-23T10:46:17;26.50;99.90
44435;DHT22;30138;20.964;105.830;2024-03-23T10:51:24;26.50;99.90
44435;DHT22;30138;20.964;105.830;2024-03-23T10:56:36;26.40;99.90
44435;DHT22;30138;20.964;105.830;2024-03-23T11:01:55;26.40;99.90
44435;DHT22;30138;20.964;105.830;2024-03-23T11:07:03;26.40;99.90
44435;DHT22;30138;20.964;105.830;2024-03-23T11:12:41;26.40;99.90
44435;DHT22;30138;20.964;105.830;2024-03-23T11:18:03;26.40;99.90
44435;DHT22;30138;20.964;105.830;2024-03-23T11:23:27;26.40;99.90
44435;DHT22;30138;20.964;105.830;2024-03-23T11:28:38;26.40;99.90
44435;DHT22;30138;20.964;105.830;2024-03-23T11:33:46;26.40;99.90
44435;DHT22;30138;20.964;105.830;2024-03-23T11:38:53;26.40;99.90
44435;DHT22;30138;20.964;105.830;2024-03-23T11:44:15;26.40;99.90
44435;DHT22;30138;20.964;105.830;2024-03-23T11:49:24;26.40;99.90
44435;DHT22;30138;20.964;105.830;2024-03-23T11:54:31;26.40;99.90
44435;DHT22;30138;20.964;105.830;2024-03-23T11:59:41;26.50;99.90
44435;DHT22;30138;20.964;105.830;2024-03-23T12:04:49;26.50;99.90
44435;DHT22;30138;20.964;105.830;2024-03-23T12:10:05;26.50;99.90
44435;DHT22;30138;20.964;105.830;2024-03-23T12:15:16;26.40;99.90
44435;DHT22;30138;20.964;105.830;2024-03-23T12:20:23;26.40;99.90
44435;DHT22;30138;20.964;105.830;2024-03-23T12:25:32;26.50;99.90
44435;DHT22;30138;20.964;105.830;2024-03-23T12:30:42;26.50;99.90
44435;DHT22;30138;20.964;105.830;2024-03-23T12:35:49;26.40;99.90
44435;DHT22;30138;20.964;105.830;2024-03-23T12:40:57;26.50;99.90
44435;DHT22;30138;20.964;105.830;2024-03-23T12:46:08;26.50;99.90
44435;DHT22;30138;20.964;105.830;2024-03-23T12:51:15;26.50;99.90
44435;DHT22;30138;20.964;105.830;2024-03-23T12:56:22;26.50;99.90
44435;DHT22;30138;20.964;105.830;2024-03-23T13:01:33;26.40;99.90
44435;DHT22;30138;20.964;105.830;2024-03-23T13:06:40;26.50;99.90
44435;DHT22;30138;20.964;105.830;2024-03-23T13:11:48;26.40;99.90
44435;DHT22;30138;20.964;105.830;2024-03-23T13:16:58;26.50;99.90
44435;DHT22;30138;20.964;105.830;2024-03-23T13:22:06;26.50;99.90
44435;DHT22;30138;20.964;105.830;2024-03-23T13:27:14;26.50;99.90
44435;DHT22;30138;20.964;105.830;2024-03-23T13:32:24;26.50;99.90
44435;DHT22;30138;20.964;105.830;2024-03-23T13:37:32;26.50;99.90
44435;DHT22;30138;20.964;105.830;2024-03-23T13:42:41;26.50;99.90
44435;DHT22;30138;20.964;105.830;2024-03-23T13:47:51;26.50;99.90
44435;DHT22;30138;20.964;105.830;2024-03-23T13:52:58;26.50;99.90
44435;DHT22;30138;20.964;105.830;2024-03-23T13:58:06;26.50;99.90
44435;DHT22;30138;20.964;105.830;2024-03-23T14:03:17;26.50;99.90
44435;DHT22;30138;20.964;105.830;2024-03-23T14:08:25;26.50;99.90
44435;DHT22;30138;20.964;105.830;2024-03-23T14:13:35;26.50;99.90
44435;DHT22;30138;20.964;105.830;2024-03-23T14:18:47;26.50;99.90
44435;DHT22;30138;20.964;105.830;2024-03-23T14:23:54;26.50;99.90
44435;DHT22;30138;20.964;105.830;2024-03-23T14:29:04;26.50;99.90
44435;DHT22;30138;20.964;105.830;2024-03-23T14:34:14;26.50;99.90
44435;DHT22;30138;20.964;105.830;2024-03-23T14:39:24;26.50;99.90
44435;DHT22;30138;20.964;105.830;2024-03-23T14:44:32;26.50;99.90
44435;DHT22;30138;20.964;105.830;2024-03-23T14:49:41;26.50;99.90
44435;DHT22;30138;20.964;105.830;2024-03-23T14:54:50;26.50;99.90
44435;DHT22;30138;20.964;105.830;2024-03-23T14:59:59;26.50;99.90
44435;DHT22;30138;20.964;105.830;2024-03-23T15:05:10;26.50;99.90
44435;DHT22;30138;20.964;105.830;2024-03-23T15:10:17;26.50;99.90
44435;DHT22;30138;20.964;105.830;2024-03-23T15:15:25;26.50;99.90
44435;DHT22;30138;20.964;105.830;2024-03-23T15:20:34;26.50;99.90
44435;DHT22;30138;20.964;105.830;2024-03-23T15:25:42;26.50;99.90
44435;DHT22;30138;20.964;105.830;2024-03-23T15:30:49;26.50;99.90
44435;DHT22;30138;20.964;105.830;2024-03-23T15:36:01;26.50;99.90
44435;DHT22;30138;20.964;105.830;2024-03-23T15:41:09;26.50;99.90
44435;DHT22;30138;20.964;105.830;2024-03-23T15:46:16;26.50;99.90
44435;DHT22;30138;20.964;105.830;2024-03-23T15:51:26;26.50;99.90
44435;DHT22;30138;20.964;105.830;2024-03-23T15:56:36;26.50;99.90
44435;DHT22;30138;20.964;105.830;2024-03-23T16:01:43;26.50;99.90
44435;DHT22;30138;20.964;105.830;2024-03-23T16:06:52;26.50;99.90
44435;DHT22;30138;20.964;105.830;2024-03-23T16:12:01;26.50;99.90
44435;DHT22;30138;20.964;105.830;2024-03-23T16:17:08;26.50;99.90
44435;DHT22;30138;20.964;105.830;2024-03-23T16:22:19;26.50;99.90
44435;DHT22;30138;20.964;105.830;2024-03-23T16:27:27;26.50;99.90
44435;DHT22;30138;20.964;105.830;2024-03-23T16:32:35;26.50;99.90
44435;DHT22;30138;20.964;105.830;2024-03-23T16:37:47;26.50;99.90
44435;DHT22;30138;20.964;105.830;2024-03-23T16:42:55;26.50;99.90
44435;DHT22;30138;20.964;105.830;2024-03-23T16:48:02;26.50;99.90
44435;DHT22;30138;20.964;105.830;2024-03-23T16:53:13;26.50;99.90
44435;DHT22;30138;20.964;105.830;2024-03-23T16:58:20;26.50;99.90
44435;DHT22;30138;20.964;105.830;2024-03-23T17:03:27;26.50;99.90
44435;DHT22;30138;20.964;105.830;2024-03-23T17:08:36;26.50;99.90
44435;DHT22;30138;20.964;105.830;2024-03-23T17:13:44;26.50;99.90
44435;DHT22;30138;20.964;105.830;2024-03-23T17:18:52;26.50;99.90
44435;DHT22;30138;20.964;105.830;2024-03-23T17:24:02;26.50;99.90
44435;DHT22;30138;20.964;105.830;2024-03-23T17:29:09;26.40;99.90
44435;DHT22;30138;20.964;105.830;2024-03-23T17:34:17;26.50;99.90
44435;DHT22;30138;20.964;105.830;2024-03-23T17:39:26;26.50;99.90
44435;DHT22;30138;20.964;105.830;2024-03-23T17:44:36;26.50;99.90
44435;DHT22;30138;20.964;105.830;2024-03-23T17:49:45;26.50;99.90
44435;DHT22;30138;20.964;105.830;2024-03-23T17:54:55;26.50;99.90
44435;DHT22;30138;20.964;105.830;2024-03-23T18:00:02;26.50;99.90
44435;DHT22;30138;20.964;105.830;2024-03-23T18:05:16;26.40;99.90
44435;DHT22;30138;20.964;105.830;2024-03-23T18:10:27;26.50;99.90
44435;DHT22;30138;20.964;105.830;2024-03-23T18:15:34;26.40;99.90
44435;DHT22;30138;20.964;105.830;2024-03-23T18:20:42;26.40;99.90
44435;DHT22;30138;20.964;105.830;2024-03-23T18:25:54;26.40;99.90
44435;DHT22;30138;20.964;105.830;2024-03-23T18:31:03;26.40;99.90
44435;DHT22;30138;20.964;105.830;2024-03-23T18:36:10;26.40;99.90
44435;DHT22;30138;20.964;105.830;2024-03-23T18:41:19;26.40;99.90
44435;DHT22;30138;20.964;105.830;2024-03-23T18:46:26;26.40;99.90
44435;DHT22;30138;20.964;105.830;2024-03-23T18:51:33;26.40;99.90
44435;DHT22;30138;20.964;105.830;2024-03-23T18:56:42;26.40;99.90
44435;DHT22;30138;20.964;105.830;2024-03-23T19:01:51;26.40;99.90
44435;DHT22;30138;20.964;105.830;2024-03-23T19:06:58;26.40;99.90
44435;DHT22;30138;20.964;105.830;2024-03-23T19:12:09;26.40;99.90
44435;DHT22;30138;20.964;105.830;2024-03-23T19:17:16;26.40;99.90
44435;DHT22;30138;20.964;105.830;2024-03-23T19:22:25;26.40;99.90
44435;DHT22;30138;20.964;105.830;2024-03-23T19:27:35;26.40;99.90
44435;DHT22;30138;20.964;105.830;2024-03-23T19:32:46;26.40;99.90
44435;DHT22;30138;20.964;105.830;2024-03-23T19:37:53;26.40;99.90
44435;DHT22;30138;20.964;105.830;2024-03-23T19:43:02;26.40;99.90
44435;DHT22;30138;20.964;105.830;2024-03-23T19:48:10;26.40;99.90
44435;DHT22;30138;20.964;105.830;2024-03-23T19:53:18;26.40;99.90
44435;DHT22;30138;20.964;105.830;2024-03-23T19:58:26;26.40;99.90
44435;DHT22;30138;20.964;105.830;2024-03-23T20:03:34;26.40;99.90
44435;DHT22;30138;20.964;105.830;2024-03-23T20:08:42;26.40;99.90
44435;DHT22;30138;20.964;105.830;2024-03-23T20:13:52;26.40;99.90
44435;DHT22;30138;20.964;105.830;2024-03-23T20:19:00;26.40;99.90
44435;DHT22;30138;20.964;105.830;2024-03-23T20:24:10;26.40;99.90
44435;DHT22;30138;20.964;105.830;2024-03-23T20:29:19;26.40;99.90
44435;DHT22;30138;20.964;105.830;2024-03-23T20:34:28;26.40;99.90
44435;DHT22;30138;20.964;105.830;2024-03-23T20:39:35;26.40;99.90
44435;DHT22;30138;20.964;105.830;2024-03-23T20:44:45;26.40;99.90
44435;DHT22;30138;20.964;105.830;2024-03-23T20:49:54;26.40;99.90
44435;DHT22;30138;20.964;105.830;2024-03-23T20:55:01;26.40;99.90
44435;DHT22;30138;20.964;105.830;2024-03-23T21:00:11;26.40;99.90
44435;DHT22;30138;20.964;105.830;2024-03-23T21:05:20;26.40;99.90
44435;DHT22;30138;20.964;105.830;2024-03-23T21:10:27;26.40;99.90
44435;DHT22;30138;20.964;105.830;2024-03-23T21:15:36;26.30;99.90
44435;DHT22;30138;20.964;105.830;2024-03-23T21:20:43;26.30;99.90
44435;DHT22;30138;20.964;105.830;2024-03-23T21:25:57;26.40;99.90
44435;DHT22;30138;20.964;105.830;2024-03-23T21:31:07;26.40;99.90
44435;DHT22;30138;20.964;105.830;2024-03-23T21:36:14;26.30;99.90
44435;DHT22;30138;20.964;105.830;2024-03-23T21:41:23;26.30;99.90
44435;DHT22;30138;20.964;105.830;2024-03-23T21:46:34;26.30;99.90
44435;DHT22;30138;20.964;105.830;2024-03-23T21:51:41;26.40;99.90
44435;DHT22;30138;20.964;105.830;2024-03-23T21:56:50;26.30;99.90
44435;DHT22;30138;20.964;105.830;2024-03-23T22:02:01;26.30;99.90
44435;DHT22;30138;20.964;105.830;2024-03-23T22:07:09;26.30;99.90
44435;DHT22;30138;20.964;105.830;2024-03-23T22:12:16;26.30;99.90
44435;DHT22;30138;20.964;105.830;2024-03-23T22:17:25;26.30;99.90
44435;DHT22;30138;20.964;105.830;2024-03-23T22:22:32;26.30;99.90
44435;DHT22;30138;20.964;105.830;2024-03-23T22:27:39;26.30;99.90
44435;DHT22;30138;20.964;105.830;2024-03-23T22:32:48;26.30;99.90
44435;DHT22;30138;20.964;105.830;2024-03-23T22:37:56;26.30;99.90
44435;DHT22;30138;20.964;105.830;2024-03-23T22:43:05;26.30;99.90
44435;DHT22;30138;20.964;105.830;2024-03-23T22:48:15;26.30;99.90
44435;DHT22;30138;20.964;105.830;2024-03-23T22:53:23;26.30;99.90
44435;DHT22;30138;20.964;105.830;2024-03-23T22:58:30;26.30;99.90
44435;DHT22;30138;20.964;105.830;2024-03-23T23:03:41;26.30;99.90
44435;DHT22;30138;20.964;105.830;2024-03-23T23:08:48;26.30;99.90
44435;DHT22;30138;20.964;105.830;2024-03-23T23:14:04;26.30;99.90
44435;DHT22;30138;20.964;105.830;2024-03-23T23:19:31;26.30;99.90
44435;DHT22;30138;20.964;105.830;2024-03-23T23:24:39;26.30;99.90
44435;DHT22;30138;20.964;105.830;2024-03-23T23:29:47;26.30;99.90
44435;DHT22;30138;20.964;105.830;2024-03-23T23:34:55;26.30;99.90
44435;DHT22;30138;20.964;105.830;2024-03-23T23:40:04;26.30;99.90
44435;DHT22;30138;20.964;105.830;2024-03-23T23:45:14;26.30;99.90
44435;DHT22;30138;20.964;105.830;2024-03-23T23:50:24;26.30;99.90
44435;DHT22;30138;20.964;105.830;2024-03-23T23:55:30;26.30;99.90
